createdAt,value
2019-05-06T00:02:09.724Z,59.20
2019-05-06T00:04:40.559Z,59.00
2019-05-06T00:07:13.692Z,58.80
2019-05-06T00:09:44.203Z,58.80
2019-05-06T00:12:15.170Z,59.10
2019-05-06T00:14:46.182Z,59.10
2019-05-06T00:17:17.095Z,58.90
2019-05-06T00:19:48.036Z,58.90
2019-05-06T00:22:18.842Z,58.80
2019-05-06T00:24:55.984Z,58.60
2019-05-06T00:27:39.661Z,58.40
2019-05-06T00:30:10.473Z,58.40
2019-05-06T00:32:41.221Z,58.40
2019-05-06T00:35:14.164Z,58.50
2019-05-06T00:37:44.692Z,58.60
2019-05-06T00:40:24.396Z,58.90
2019-05-06T00:42:59.633Z,59.20
2019-05-06T00:45:30.433Z,59.40
2019-05-06T00:48:01.208Z,59.50
2019-05-06T00:50:34.791Z,59.50
2019-05-06T00:53:07.323Z,59.70
2019-05-06T00:55:38.154Z,59.70
2019-05-06T00:58:09.054Z,59.60
2019-05-06T01:00:40.793Z,59.50
2019-05-06T01:03:11.588Z,59.50
2019-05-06T01:05:44.290Z,59.30
2019-05-06T01:08:14.812Z,59.20
2019-05-06T01:10:45.715Z,59.20
2019-05-06T01:13:31.556Z,59.00
2019-05-06T01:16:04.120Z,59.00
2019-05-06T01:18:34.796Z,59.00
2019-05-06T01:21:14.237Z,59.10
2019-05-06T01:23:45.425Z,59.30
2019-05-06T01:26:17.598Z,59.30
2019-05-06T01:28:48.437Z,59.20
2019-05-06T01:31:19.238Z,59.20
2019-05-06T01:33:49.995Z,59.20
2019-05-06T01:36:20.803Z,59.10
2019-05-06T01:39:07.552Z,59.20
2019-05-06T01:41:56.283Z,59.20
2019-05-06T01:44:27.340Z,59.40
2019-05-06T01:46:58.128Z,59.50
2019-05-06T01:49:29.227Z,59.50
2019-05-06T01:52:00.031Z,59.50
2019-05-06T01:54:30.807Z,59.50
2019-05-06T01:57:03.814Z,59.40
2019-05-06T01:59:34.483Z,59.30
2019-05-06T02:02:06.649Z,59.40
2019-05-06T02:04:38.315Z,59.30
2019-05-06T02:07:09.307Z,59.30
2019-05-06T02:09:40.076Z,59.20
2019-05-06T02:12:10.869Z,59.10
2019-05-06T02:14:43.504Z,58.70
2019-05-06T02:17:14.502Z,58.70
2019-05-06T02:19:45.595Z,58.70
2019-05-06T02:22:35.317Z,59.10
2019-05-06T02:25:13.847Z,59.70
2019-05-06T02:27:44.796Z,60.30
2019-05-06T02:30:25.193Z,61.00
2019-05-06T02:33:15.443Z,61.10
2019-05-06T02:36:06.710Z,61.00
2019-05-06T02:38:46.714Z,60.80
2019-05-06T02:41:13.294Z,60.40
2019-05-06T02:43:43.598Z,60.30
2019-05-06T02:46:14.639Z,60.00
2019-05-06T02:49:13.336Z,59.80
2019-05-06T02:51:44.455Z,59.80
2019-05-06T02:54:15.439Z,60.00
2019-05-06T02:56:46.336Z,60.10
2019-05-06T02:59:17.085Z,60.00
2019-05-06T03:01:47.913Z,59.90
2019-05-06T03:04:18.771Z,59.80
2019-05-06T03:06:49.536Z,59.70
2019-05-06T03:09:23.112Z,59.40
2019-05-06T03:11:53.953Z,59.20
2019-05-06T03:14:25.196Z,59.00
2019-05-06T03:16:56.355Z,58.90
2019-05-06T03:19:28.373Z,58.90
2019-05-06T03:22:27.825Z,58.90
2019-05-06T03:25:07.018Z,58.90
2019-05-06T03:27:37.998Z,59.50
2019-05-06T03:30:29.590Z,59.20
2019-05-06T03:33:30.233Z,59.50
2019-05-06T03:35:50.421Z,59.60
2019-05-06T03:38:06.318Z,59.60
2019-05-06T03:40:41.800Z,59.60
2019-05-06T03:43:09.727Z,59.50
2019-05-06T03:46:04.614Z,59.60
2019-05-06T03:48:49.256Z,59.60
2019-05-06T03:51:23.072Z,59.60
2019-05-06T03:53:54.089Z,59.60
2019-05-06T03:56:27.055Z,60.10
2019-05-06T03:58:59.603Z,61.00
2019-05-06T04:01:33.370Z,61.90
2019-05-06T04:04:03.875Z,62.10
2019-05-06T04:06:34.848Z,62.20
2019-05-06T04:09:06.435Z,61.90
2019-05-06T04:11:39.356Z,61.60
2019-05-06T04:14:13.706Z,61.50
2019-05-06T04:16:53.191Z,61.60
2019-05-06T04:19:28.822Z,62.10
2019-05-06T04:22:16.979Z,62.60
2019-05-06T04:25:05.675Z,62.60
2019-05-06T04:27:46.718Z,62.60
2019-05-06T04:30:18.129Z,62.60
2019-05-06T04:32:49.119Z,63.10
2019-05-06T04:35:22.746Z,63.10
2019-05-06T04:37:53.877Z,63.10
2019-05-06T04:40:25.169Z,63.10
2019-05-06T04:42:56.859Z,63.10
2019-05-06T04:45:27.876Z,63.00
2019-05-06T04:47:59.021Z,62.70
2019-05-06T04:50:32.939Z,62.30
2019-05-06T04:53:04.987Z,61.90
2019-05-06T04:55:36.644Z,61.40
2019-05-06T04:58:07.924Z,60.90
2019-05-06T05:00:39.351Z,60.30
2019-05-06T05:03:13.988Z,59.50
2019-05-06T05:05:45.035Z,58.30
2019-05-06T05:08:17.229Z,56.70
2019-05-06T05:11:09.828Z,55.50
2019-05-06T05:14:04.051Z,54.20
2019-05-06T05:16:49.268Z,53.50
2019-05-06T05:19:22.925Z,52.70
2019-05-06T05:21:56.785Z,52.30
2019-05-06T05:24:28.012Z,51.50
2019-05-06T05:26:59.179Z,50.80
2019-05-06T05:29:32.388Z,50.40
2019-05-06T05:32:04.220Z,50.20
2019-05-06T05:34:39.808Z,49.90
2019-05-06T05:37:07.957Z,49.40
2019-05-06T05:39:38.955Z,48.60
2019-05-06T05:42:42.373Z,47.50
2019-05-06T05:45:13.742Z,46.70
2019-05-06T05:47:45.107Z,46.00
2019-05-06T05:50:32.558Z,44.50
2019-05-06T05:53:04.069Z,43.60
2019-05-06T05:55:35.497Z,43.70
2019-05-06T05:58:07.108Z,43.80
2019-05-06T06:00:38.399Z,43.10
2019-05-06T06:03:09.508Z,43.00
2019-05-06T06:05:42.665Z,42.20
2019-05-06T06:08:13.587Z,42.30
2019-05-06T06:10:52.416Z,41.90
2019-05-06T06:13:23.197Z,41.60
2019-05-06T06:16:06.169Z,41.80
2019-05-06T06:18:48.348Z,40.90
2019-05-06T06:21:42.773Z,40.60
2019-05-06T06:24:34.258Z,40.90
2019-05-06T06:27:05.682Z,40.30
2019-05-06T06:29:36.930Z,40.20
2019-05-06T06:32:16.886Z,40.30
2019-05-06T06:35:08.292Z,39.30
2019-05-06T06:37:48.563Z,39.10
2019-05-06T06:40:22.273Z,38.80
2019-05-06T06:42:58.092Z,38.70
2019-05-06T06:45:29.151Z,38.50
2019-05-06T06:47:59.997Z,38.30
2019-05-06T06:50:32.857Z,38.10
2019-05-06T06:53:04.909Z,37.70
2019-05-06T06:55:35.663Z,37.90
2019-05-06T06:58:41.663Z,37.10
2019-05-06T07:01:29.900Z,36.90
2019-05-06T07:04:13.494Z,36.50
2019-05-06T07:06:48.218Z,36.70
2019-05-06T07:09:19.257Z,36.20
2019-05-06T07:11:52.478Z,35.60
2019-05-06T07:14:22.784Z,36.20
2019-05-06T07:16:53.921Z,35.60
2019-05-06T07:19:33.249Z,35.20
2019-05-06T07:22:06.863Z,35.00
2019-05-06T07:24:36.924Z,34.90
2019-05-06T07:27:15.698Z,35.00
2019-05-06T07:29:48.434Z,34.90
2019-05-06T07:32:19.665Z,34.70
2019-05-06T07:34:53.038Z,34.00
2019-05-06T07:37:23.621Z,33.90
2019-05-06T07:39:54.816Z,33.50
2019-05-06T07:42:32.327Z,33.30
2019-05-06T07:45:15.983Z,32.10
2019-05-06T07:47:59.158Z,32.70
2019-05-06T07:50:30.413Z,31.80
2019-05-06T07:53:07.417Z,32.10
2019-05-06T07:55:42.075Z,31.80
2019-05-06T07:58:13.794Z,30.60
2019-05-06T08:00:45.326Z,30.50
2019-05-06T08:03:16.484Z,30.10
2019-05-06T08:05:55.736Z,30.20
2019-05-06T08:08:22.839Z,31.30
2019-05-06T08:10:53.457Z,30.80
2019-05-06T08:13:24.291Z,30.60
2019-05-06T08:15:55.730Z,30.50
2019-05-06T08:18:27.018Z,29.90
2019-05-06T08:20:59.645Z,28.80
2019-05-06T08:23:42.822Z,28.50
2019-05-06T08:26:17.551Z,28.30
2019-05-06T08:28:47.237Z,28.20
2019-05-06T08:31:22.186Z,29.40
2019-05-06T08:33:52.767Z,28.80
2019-05-06T08:36:48.635Z,28.40
2019-05-06T08:39:21.920Z,27.90
2019-05-06T08:41:52.874Z,27.80
2019-05-06T08:44:24.035Z,26.80
2019-05-06T08:46:55.490Z,27.10
2019-05-06T08:49:28.263Z,26.40
2019-05-06T08:52:09.653Z,26.60
2019-05-06T08:54:45.096Z,27.70
2019-05-06T08:57:16.255Z,28.30
2019-05-06T08:59:47.319Z,29.10
2019-05-06T09:02:19.836Z,28.20
2019-05-06T09:04:51.794Z,27.60
2019-05-06T09:07:23.935Z,25.80
2019-05-06T09:09:55.212Z,25.60
2019-05-06T09:12:26.419Z,26.30
2019-05-06T09:14:57.295Z,25.90
2019-05-06T09:17:33.017Z,24.60
2019-05-06T09:20:04.613Z,24.90
2019-05-06T09:22:36.253Z,25.30
2019-05-06T09:25:07.713Z,26.10
2019-05-06T09:28:06.972Z,26.70
2019-05-06T09:30:43.416Z,26.50
2019-05-06T09:33:16.185Z,26.00
2019-05-06T09:35:47.667Z,26.20
2019-05-06T09:38:18.641Z,26.60
2019-05-06T09:40:49.823Z,26.70
2019-05-06T09:43:22.236Z,27.10
2019-05-06T09:45:53.199Z,26.70
2019-05-06T09:48:32.883Z,26.70
2019-05-06T09:51:03.363Z,26.60
2019-05-06T09:53:39.668Z,26.80
2019-05-06T09:56:18.134Z,27.50
2019-05-06T09:58:49.431Z,27.80
2019-05-06T10:01:22.514Z,27.60
2019-05-06T10:03:54.135Z,27.40
2019-05-06T10:06:25.078Z,26.20
2019-05-06T10:08:56.228Z,24.50
2019-05-06T10:11:27.375Z,23.50
2019-05-06T10:13:58.609Z,23.70
2019-05-06T10:16:29.698Z,23.20
2019-05-06T10:19:02.539Z,23.30
2019-05-06T10:21:33.910Z,23.40
2019-05-06T10:24:06.138Z,22.40
2019-05-06T10:26:43.231Z,23.30
2019-05-06T10:29:32.616Z,24.60
2019-05-06T10:32:22.464Z,24.70
2019-05-06T10:34:53.745Z,24.60
2019-05-06T10:37:48.240Z,22.90
2019-05-06T10:40:25.173Z,21.50
2019-05-06T10:43:16.208Z,21.70
2019-05-06T10:45:47.294Z,22.30
2019-05-06T10:48:18.334Z,21.60
2019-05-06T10:50:52.742Z,20.20
2019-05-06T10:53:24.867Z,19.70
2019-05-06T10:55:57.667Z,18.70
2019-05-06T10:58:28.803Z,18.90
2019-05-06T11:01:12.682Z,19.90
2019-05-06T11:03:44.178Z,20.60
2019-05-06T11:06:35.787Z,21.60
2019-05-06T11:09:09.734Z,22.20
2019-05-06T11:11:42.781Z,22.80
2019-05-06T11:14:13.504Z,23.60
2019-05-06T11:16:44.598Z,23.60
2019-05-06T11:19:15.599Z,24.10
2019-05-06T11:21:46.819Z,24.60
2019-05-06T11:24:18.127Z,24.20
2019-05-06T11:26:49.135Z,23.30
2019-05-06T11:29:25.131Z,23.90
2019-05-06T11:32:15.157Z,23.70
2019-05-06T11:34:54.109Z,23.30
2019-05-06T11:37:46.911Z,23.40
2019-05-06T11:40:16.501Z,23.50
2019-05-06T11:42:47.126Z,21.20
2019-05-06T11:45:18.491Z,20.50
2019-05-06T11:47:49.642Z,20.40
2019-05-06T11:50:21.980Z,20.80
2019-05-06T11:52:55.882Z,21.20
2019-05-06T11:55:30.833Z,22.10
2019-05-06T11:57:58.577Z,22.80
2019-05-06T12:00:35.910Z,22.80
2019-05-06T12:03:07.350Z,22.70
2019-05-06T12:05:38.339Z,23.30
2019-05-06T12:08:09.369Z,23.10
2019-05-06T12:10:42.335Z,22.20
2019-05-06T12:13:13.492Z,22.50
2019-05-06T12:15:44.429Z,22.40
2019-05-06T12:18:15.563Z,22.10
2019-05-06T12:20:46.618Z,26.20
2019-05-06T12:23:17.865Z,28.40
2019-05-06T12:25:48.996Z,29.00
2019-05-06T12:28:21.016Z,29.70
2019-05-06T12:30:52.503Z,30.40
2019-05-06T12:33:42.795Z,31.80
2019-05-06T12:36:21.898Z,32.90
2019-05-06T12:39:15.995Z,34.00
2019-05-06T12:42:15.523Z,34.70
2019-05-06T12:44:55.621Z,33.40
2019-05-06T12:47:33.005Z,33.10
2019-05-06T12:50:05.154Z,33.70
2019-05-06T12:52:37.492Z,34.60
2019-05-06T12:55:18.292Z,35.60
2019-05-06T12:57:43.293Z,36.90
2019-05-06T13:00:14.930Z,36.80
2019-05-06T13:02:45.944Z,37.60
2019-05-06T13:05:17.322Z,37.80
2019-05-06T13:07:48.558Z,37.70
2019-05-06T13:10:23.467Z,37.90
2019-05-06T13:13:00.308Z,38.30
2019-05-06T13:15:31.613Z,39.30
2019-05-06T13:18:07.019Z,38.70
2019-05-06T13:20:39.768Z,38.60
2019-05-06T13:23:45.487Z,38.00
2019-05-06T13:26:16.695Z,36.40
2019-05-06T13:28:53.216Z,36.40
2019-05-06T13:31:25.741Z,37.20
2019-05-06T13:34:05.276Z,38.10
2019-05-06T13:36:36.504Z,38.60
2019-05-06T13:39:14.256Z,39.70
2019-05-06T13:41:42.160Z,40.00
2019-05-06T13:44:17.903Z,40.90
2019-05-06T13:46:53.828Z,40.80
2019-05-06T13:49:52.188Z,40.80
2019-05-06T13:52:26.405Z,40.20
2019-05-06T13:54:58.551Z,40.10
2019-05-06T13:57:31.939Z,39.90
2019-05-06T14:00:03.117Z,40.10
2019-05-06T14:02:53.775Z,41.00
2019-05-06T14:05:24.902Z,41.50
2019-05-06T14:07:56.500Z,41.80
2019-05-06T14:10:28.046Z,42.00
2019-05-06T14:12:59.493Z,41.40
2019-05-06T14:15:32.545Z,40.80
2019-05-06T14:18:04.958Z,40.40
2019-05-06T14:20:37.540Z,40.50
2019-05-06T14:23:09.317Z,41.00
2019-05-06T14:26:12.611Z,41.40
2019-05-06T14:29:02.874Z,40.70
2019-05-06T14:31:36.524Z,39.60
2019-05-06T14:34:08.130Z,39.10
2019-05-06T14:36:39.567Z,36.90
2019-05-06T14:39:18.481Z,34.20
2019-05-06T14:41:58.655Z,33.50
2019-05-06T14:44:32.521Z,33.30
2019-05-06T14:47:25.948Z,34.00
2019-05-06T14:49:57.138Z,35.60
2019-05-06T14:52:28.349Z,36.50
2019-05-06T14:55:05.218Z,37.20
2019-05-06T14:57:37.361Z,37.10
2019-05-06T15:00:12.188Z,35.40
2019-05-06T15:02:44.579Z,33.20
2019-05-06T15:05:16.015Z,32.20
2019-05-06T15:07:46.868Z,32.40
2019-05-06T15:10:23.037Z,33.30
2019-05-06T15:13:07.650Z,34.30
2019-05-06T15:15:43.013Z,35.10
2019-05-06T15:18:37.077Z,35.40
2019-05-06T15:21:30.075Z,36.40
2019-05-06T15:23:43.369Z,36.90
2019-05-06T15:26:15.259Z,37.30
2019-05-06T15:28:46.322Z,36.50
2019-05-06T15:31:26.008Z,35.10
2019-05-06T15:33:58.630Z,33.80
2019-05-06T15:36:34.941Z,33.30
2019-05-06T15:39:07.572Z,32.60
2019-05-06T15:41:40.090Z,32.00
2019-05-06T15:44:12.622Z,33.00
2019-05-06T15:46:44.248Z,32.90
2019-05-06T15:49:15.333Z,34.20
2019-05-06T15:51:46.443Z,35.10
2019-05-06T15:54:19.138Z,35.20
2019-05-06T15:59:46.586Z,34.00
2019-05-06T16:02:42.001Z,33.80
2019-05-06T16:05:36.063Z,33.80
2019-05-06T16:11:19.457Z,35.70
2019-05-06T16:13:55.373Z,36.50
2019-05-06T16:16:26.416Z,36.90
2019-05-06T16:18:57.953Z,37.90
2019-05-06T16:21:29.498Z,38.70
2019-05-06T16:24:12.933Z,39.70
2019-05-06T16:26:55.786Z,40.40
2019-05-06T16:29:36.287Z,41.30
2019-05-06T16:32:25.564Z,41.50
2019-05-06T16:34:59.469Z,41.20
2019-05-06T16:37:45.239Z,41.80
2019-05-06T16:40:18.464Z,42.70
2019-05-06T16:43:02.111Z,43.40
2019-05-06T16:45:33.738Z,44.10
2019-05-06T16:48:06.380Z,44.30
2019-05-06T16:50:47.022Z,44.40
2019-05-06T16:53:18.390Z,44.20
2019-05-06T16:56:29.577Z,44.10
2019-05-06T17:03:03.019Z,44.50
2019-05-06T17:05:58.886Z,43.70
2019-05-06T17:08:36.822Z,43.00
2019-05-06T17:11:26.159Z,42.80
2019-05-06T17:13:46.539Z,43.10
2019-05-06T17:16:22.221Z,43.10
2019-05-06T17:18:56.409Z,43.00
2019-05-06T17:21:26.645Z,42.30
2019-05-06T17:24:03.432Z,42.10
2019-05-06T17:26:35.847Z,42.20
2019-05-06T17:29:16.273Z,42.50
2019-05-06T17:32:09.379Z,43.10
2019-05-06T17:34:43.686Z,43.50
2019-05-06T17:37:32.992Z,43.90
2019-05-06T17:40:10.086Z,44.50
2019-05-06T17:42:39.475Z,44.00
2019-05-06T17:45:28.416Z,44.10
2019-05-06T17:48:06.206Z,44.40
2019-05-06T17:50:39.081Z,44.60
2019-05-06T17:53:12.435Z,44.60
2019-05-06T17:55:44.148Z,44.70
2019-05-06T17:58:15.873Z,45.00
2019-05-06T18:00:47.572Z,45.20
2019-05-06T18:03:19.134Z,45.20
2019-05-06T18:05:52.529Z,45.30
2019-05-06T18:08:23.453Z,45.30
2019-05-06T18:10:54.838Z,45.40
2019-05-06T18:13:26.314Z,45.60
2019-05-06T18:15:57.902Z,45.60
2019-05-06T18:18:29.506Z,45.80
2019-05-06T18:21:02.566Z,46.00
2019-05-06T18:23:33.706Z,46.10
2019-05-06T18:26:04.838Z,46.40
2019-05-06T18:28:39.325Z,46.40
2019-05-06T18:31:12.494Z,46.50
2019-05-06T18:33:44.212Z,46.90
2019-05-06T18:36:16.026Z,47.00
2019-05-06T18:38:47.884Z,47.20
2019-05-06T18:41:19.615Z,47.60
2019-05-06T18:43:53.311Z,48.50
2019-05-06T18:46:24.570Z,48.50
2019-05-06T18:49:02.547Z,49.50
2019-05-06T18:51:34.478Z,49.80
2019-05-06T18:54:06.252Z,50.30
2019-05-06T18:56:37.467Z,50.30
2019-05-06T18:59:08.630Z,50.20
2019-05-06T19:01:39.857Z,50.20
2019-05-06T19:04:25.764Z,50.10
2019-05-06T19:07:09.575Z,50.10
2019-05-06T19:09:38.551Z,49.90
2019-05-06T19:12:09.987Z,49.90
2019-05-06T19:14:43.204Z,50.40
2019-05-06T19:17:14.306Z,50.60
2019-05-06T19:19:45.580Z,50.60
2019-05-06T19:22:16.788Z,50.70
2019-05-06T19:24:48.112Z,51.00
2019-05-06T19:27:19.249Z,51.20
2019-05-06T19:29:54.360Z,51.20
2019-05-06T19:32:23.628Z,51.20
2019-05-06T19:34:55.133Z,51.20
2019-05-06T19:37:26.419Z,51.20
2019-05-06T19:39:57.603Z,51.10
2019-05-06T19:42:42.816Z,52.00
2019-05-06T19:45:02.550Z,51.80
2019-05-06T19:47:34.499Z,51.80
2019-05-06T19:50:06.789Z,52.00
2019-05-06T19:52:37.816Z,52.00
2019-05-06T19:55:09.048Z,52.00
2019-05-06T19:57:40.571Z,52.00
2019-05-06T20:00:11.923Z,52.10
2019-05-06T20:02:43.188Z,52.50
2019-05-06T20:05:23.702Z,52.50
2019-05-06T20:08:04.912Z,52.40
2019-05-06T20:10:56.095Z,52.60
2019-05-06T20:13:26.390Z,52.60
2019-05-06T20:15:57.548Z,52.50
2019-05-06T20:18:28.556Z,52.50
2019-05-06T20:20:59.657Z,52.70
2019-05-06T20:23:32.689Z,52.70
2019-05-06T20:26:03.429Z,52.50
2019-05-06T20:28:34.503Z,52.50
2019-05-06T20:31:06.015Z,52.60
2019-05-06T20:33:37.062Z,52.50
2019-05-06T20:36:08.225Z,52.50
2019-05-06T20:38:39.214Z,52.60
2019-05-06T20:41:12.465Z,52.80
2019-05-06T20:43:43.195Z,52.90
2019-05-06T20:46:14.443Z,52.80
2019-05-06T20:48:45.725Z,52.80
2019-05-06T20:51:17.071Z,52.90
2019-05-06T20:53:48.019Z,53.10
2019-05-06T20:56:19.417Z,53.10
2019-05-06T20:58:53.026Z,53.10
2019-05-06T21:01:24.181Z,52.80
2019-05-06T21:03:55.310Z,52.60
2019-05-06T21:06:26.645Z,52.50
2019-05-06T21:08:57.627Z,52.50
2019-05-06T21:11:29.428Z,52.40
2019-05-06T21:14:02.275Z,52.30
2019-05-06T21:16:33.438Z,52.30
2019-05-06T21:19:04.657Z,52.30
2019-05-06T21:21:36.378Z,52.10
2019-05-06T21:24:07.645Z,52.00
2019-05-06T21:26:39.674Z,52.10
2019-05-06T21:29:12.626Z,52.20
2019-05-06T21:31:43.809Z,52.10
2019-05-06T21:34:15.244Z,52.00
2019-05-06T21:36:46.369Z,52.00
2019-05-06T21:39:17.125Z,52.00
2019-05-06T21:41:47.940Z,52.50
2019-05-06T21:44:18.678Z,52.40
2019-05-06T21:46:49.478Z,52.50
2019-05-06T21:49:20.239Z,52.60
2019-05-06T21:51:51.120Z,52.50
2019-05-06T21:54:23.170Z,52.30
2019-05-06T21:56:54.181Z,52.20
2019-05-06T21:59:25.049Z,52.20
2019-05-06T22:01:56.054Z,52.40
2019-05-06T22:04:26.798Z,52.50
2019-05-06T22:06:57.577Z,52.70
2019-05-06T22:09:28.317Z,52.80
2019-05-06T22:11:59.175Z,52.80
2019-05-06T22:14:29.897Z,53.00
2019-05-06T22:17:03.802Z,53.20
2019-05-06T22:19:33.244Z,52.90
2019-05-06T22:22:06.071Z,52.90
2019-05-06T22:24:57.676Z,52.90
2019-05-06T22:27:29.746Z,53.00
2019-05-06T22:30:03.050Z,53.20
2019-05-06T22:32:45.445Z,53.20
2019-05-06T22:35:17.239Z,53.40
2019-05-06T22:37:48.026Z,53.50
2019-05-06T22:40:18.830Z,53.80
2019-05-06T22:42:49.583Z,54.00
2019-05-06T22:45:22.271Z,54.10
2019-05-06T22:47:54.722Z,54.20
2019-05-06T22:50:25.482Z,54.40
2019-05-06T22:52:56.253Z,54.50
2019-05-06T22:55:26.968Z,54.60
2019-05-06T22:57:57.747Z,54.80
2019-05-06T23:00:29.864Z,54.80
2019-05-06T23:03:04.833Z,54.80
2019-05-06T23:05:35.562Z,55.00
2019-05-06T23:08:06.344Z,55.30
2019-05-06T23:10:37.075Z,55.40
2019-05-06T23:13:07.966Z,55.50
2019-05-06T23:15:41.893Z,55.80
2019-05-06T23:18:12.185Z,55.90
2019-05-06T23:20:43.213Z,56.10
2019-05-06T23:23:14.075Z,56.30
2019-05-06T23:25:46.406Z,56.50
2019-05-06T23:28:17.234Z,56.50
2019-05-06T23:30:47.969Z,56.30
2019-05-06T23:33:18.764Z,56.50
2019-05-06T23:35:51.494Z,56.60
2019-05-06T23:38:57.117Z,56.80
2019-05-06T23:42:03.236Z,56.80
2019-05-06T23:45:09.377Z,56.80
2019-05-06T23:48:15.177Z,56.80
2019-05-06T23:51:22.314Z,56.90
2019-05-06T23:54:28.479Z,56.90
2019-05-06T23:56:57.381Z,57.00
2019-05-06T23:59:28.108Z,57.00
